Tropical Cyclones
[Index]
Main Index Home Page Stock Weather Photos Extreme Storms Discussion Storm News and Storm Chasing Reports Tropical Cyclones / Hurricanes / Typhoons Weather Data and Links Wild Fires / Bushfires Weather Observation Techniques Weather Picture Catalogue Tornado Pictures and Reports Stock Video Footage and DVDs for sale
Season 1966-1967 Tropical Cyclone CYNTHIA Track Map
Season 1966-1967 Summaries: [BoM-AU] [JTWC-AU] [JTWC-SIO] [JTWC-SPAC] [JTWC-SH]
<<- Previous TC | BoM 1966-1967 Season | Next TC ->>

click for intensity scale information  Lat/long Grid: Show Hide

 Date Labels: Show Hide

Bureau of Meteorology Tropical Cyclone Data

Name: CYNTHIA
Number: 419 / 196667_11

13 Mar 1967 23:00 UTC to 19 Mar 1967 10:00 UTC

    date/time    lat    long    hPa   cat  kts
1967-03-13 23   14.9   137.9    999                     
1967-03-14 11   14.5   137.5    996                     
1967-03-14 23   14.1   136.9    993    1                
1967-03-15 11   13.4   136.3    994    1                
1967-03-15 14   13.2   136.2    994    1                
1967-03-15 20   12.4   136.0    997                     
1967-03-15 23   12.1   136.7    997                     
1967-03-16 02   12.1   136.9    997                     
1967-03-16 08   12.3   137.8    996                     
1967-03-16 11   12.8   138.0    996                     
1967-03-16 23   13.7   137.3    995    1                
1967-03-17 02   13.5   137.1    995    1                
1967-03-17 08   13.0   137.3    995    1                
1967-03-17 11   13.0   137.7    995    1                
1967-03-17 17   13.1   138.4    996                     
1967-03-17 23   13.9   138.9    997                     
1967-03-18 11   14.7   138.6    998                     
1967-03-18 23   15.3   137.7    998                     
1967-03-19 10   15.9   137.1   1002                     
Winds are 10-min average.

Tropical cyclone tracks developed by Michael Bath using data from the Bureau of Meteorology and Google Maps.


[Australian Severe Weather index] [Copyright Notice] [Email Contacts] [Search This Site] [Privacy Policy]
Document: tropical_cyclone_cynthia.htm Updated: 30 May 2013